Main page
METAR-TAF:

METAR-TAF

Airports :

Les Eplatures Airport

La Chaux-de-Fonds, Switzerland

latitude: 47-05-03N, longitude: 006-47-37E, elevation: 1027 m

Current weather observation

The report was made 38 minutes ago, at 01:50 UTC
Wind 7 kt from the Southwest
Temperature -2°C
Humidity 93%
Pressure 1011 hPa
Visibility 10 km or more
Overcast at a height of 600 ft

METAR: LSGC 270150Z AUTO 23007KT 9999 OVC006 M02/M03 Q1011 RESN

Time: 03:28 (02:28 UTC)

Forecast

The report was made 12 hours and 3 minutes ago, at 14:25 UTC
Forecast valid from 26 at 15 UTC to 26 at 24 UTC
Wind 10 kt from the West
Visibility 10 km or more
Broken clouds at a height of 1200 ft
light snow showers
Probability 30% :
Temporary
from 26 at 15 UTC to 26 at 24 UTC
Visibility: 0800 m
Broken clouds at a height of 400 ft
Scattered clouds at a height of 700 ft, Towering cumulus.
heavy snow showers

TAF: LSGC 261425Z 2615/2624 27010KT 9999 -SHSN BKN012 PROB30 TEMPO 2615/2624 0800 +SHSN BKN004 SCT007TCU

Weather observations and forecasts of more than 4000 airports (METAR and TAF reports).

The available stations are represented by yellow and red dots on the map.

Hover mouse over dot to see the name of the station.

Then click to see weather observations and forecasts.

To change the map : click on the green buttons with a black cross to zoom in, on the green button with a dash to zoom out, or on the green arrows for adjacent maps.


METAR-TAF: